createdAt,value
2023-05-06T00:00:53.184Z,0.00
2023-05-06T00:01:53.607Z,0.00
2023-05-06T00:02:53.930Z,0.00
2023-05-06T00:03:54.217Z,1.00
2023-05-06T00:04:54.506Z,0.00
2023-05-06T00:05:54.606Z,1.00
2023-05-06T00:06:54.952Z,0.00
2023-05-06T00:07:55.239Z,0.00
2023-05-06T00:08:55.453Z,0.00
2023-05-06T00:09:55.809Z,0.00
2023-05-06T00:10:55.993Z,0.00
2023-05-06T00:11:56.247Z,0.00
2023-05-06T00:12:56.513Z,1.00
2023-05-06T00:13:56.768Z,1.00
2023-05-06T00:14:57.125Z,0.00
2023-05-06T00:15:57.456Z,0.00
2023-05-06T00:16:57.677Z,0.00
2023-05-06T00:17:58.043Z,0.00
2023-05-06T00:18:58.273Z,0.00
2023-05-06T00:19:58.639Z,0.00
2023-05-06T00:20:58.953Z,0.00
2023-05-06T00:21:59.174Z,0.00
2023-05-06T00:22:59.560Z,0.00
2023-05-06T00:23:59.933Z,0.00
2023-05-06T00:25:00.085Z,0.00
2023-05-06T00:26:00.285Z,0.00
2023-05-06T00:27:00.574Z,0.00
2023-05-06T00:28:00.946Z,0.00
2023-05-06T00:29:01.434Z,0.00
2023-05-06T00:30:01.598Z,0.00
2023-05-06T00:31:01.787Z,1.00
2023-05-06T00:32:02.052Z,1.00
2023-05-06T00:33:02.304Z,1.00
2023-05-06T00:34:02.613Z,0.00
2023-05-06T00:35:02.865Z,0.00
2023-05-06T00:36:03.137Z,0.00
2023-05-06T00:37:04.325Z,0.00
2023-05-06T00:38:03.678Z,0.00
2023-05-06T00:39:03.894Z,1.00
2023-05-06T00:40:04.217Z,0.00
2023-05-06T00:41:04.613Z,0.00
2023-05-06T00:42:04.786Z,1.00
2023-05-06T00:43:05.071Z,0.00
2023-05-06T00:44:05.426Z,0.00
2023-05-06T00:45:05.665Z,0.00
2023-05-06T00:46:05.910Z,0.00
2023-05-06T00:47:06.299Z,0.00
2023-05-06T00:48:06.463Z,0.00
2023-05-06T00:49:06.738Z,0.00
2023-05-06T00:50:07.069Z,0.00
2023-05-06T00:51:07.220Z,0.00
2023-05-06T00:52:07.501Z,1.00
2023-05-06T00:53:07.798Z,0.00
2023-05-06T00:54:08.216Z,0.00
2023-05-06T00:55:08.552Z,0.00
2023-05-06T00:56:08.738Z,0.00
2023-05-06T00:57:08.964Z,0.00
2023-05-06T00:58:09.240Z,0.00
2023-05-06T00:59:09.678Z,0.00
2023-05-06T01:00:09.867Z,0.00
2023-05-06T01:01:10.308Z,0.00
2023-05-06T01:02:10.540Z,0.00
2023-05-06T01:03:10.862Z,1.00
2023-05-06T01:04:11.157Z,0.00
2023-05-06T01:05:11.749Z,0.00
2023-05-06T01:06:11.856Z,0.00
2023-05-06T01:07:12.009Z,0.00
2023-05-06T01:08:12.230Z,0.00
2023-05-06T01:09:12.493Z,0.00
2023-05-06T01:10:12.852Z,0.00
2023-05-06T01:11:15.618Z,0.00
2023-05-06T01:12:13.392Z,0.00
2023-05-06T01:13:13.721Z,0.00
2023-05-06T01:14:15.043Z,0.00
2023-05-06T01:15:14.191Z,0.00
2023-05-06T01:16:14.513Z,0.00
2023-05-06T01:17:14.931Z,0.00
2023-05-06T01:18:15.063Z,0.00
2023-05-06T01:19:15.238Z,1.00
2023-05-06T01:20:15.581Z,1.00
2023-05-06T01:21:15.895Z,0.00
2023-05-06T01:22:16.206Z,1.00
2023-05-06T01:23:16.511Z,0.00
2023-05-06T01:24:16.807Z,0.00
2023-05-06T01:25:17.034Z,0.00
2023-05-06T01:26:17.384Z,0.00
2023-05-06T01:27:17.761Z,0.00
2023-05-06T01:28:17.965Z,0.00
2023-05-06T01:29:18.223Z,0.00
2023-05-06T01:30:18.570Z,0.00
2023-05-06T01:31:18.809Z,1.00
2023-05-06T01:32:19.215Z,0.00
2023-05-06T01:33:19.349Z,0.00
2023-05-06T01:34:19.642Z,0.00
2023-05-06T01:35:19.858Z,0.00
2023-05-06T01:36:20.261Z,0.00
2023-05-06T01:37:20.487Z,0.00
2023-05-06T01:38:20.746Z,0.00
2023-05-06T01:39:21.032Z,0.00
2023-05-06T01:40:21.398Z,0.00
2023-05-06T01:41:21.729Z,1.00
2023-05-06T01:42:21.939Z,0.00
2023-05-06T01:43:22.258Z,0.00
2023-05-06T01:44:22.522Z,0.00
2023-05-06T01:45:22.874Z,0.00
2023-05-06T01:46:23.192Z,0.00
2023-05-06T01:47:23.432Z,0.00
2023-05-06T01:48:23.785Z,0.00
2023-05-06T01:49:23.933Z,0.00
2023-05-06T01:50:24.214Z,0.00
2023-05-06T01:51:24.528Z,0.00
2023-05-06T01:52:24.833Z,0.00
2023-05-06T01:53:25.134Z,0.00
2023-05-06T01:54:25.462Z,0.00
2023-05-06T01:55:25.776Z,0.00
2023-05-06T01:56:26.133Z,0.00
2023-05-06T01:57:26.288Z,0.00
2023-05-06T01:58:26.620Z,0.00
2023-05-06T01:59:27.959Z,0.00
2023-05-06T02:00:27.232Z,0.00
2023-05-06T02:01:27.516Z,0.00
2023-05-06T02:02:27.931Z,1.00
2023-05-06T02:03:28.657Z,0.00
2023-05-06T02:04:28.427Z,0.00
2023-05-06T02:05:28.650Z,0.00
2023-05-06T02:06:28.886Z,0.00
2023-05-06T02:07:29.156Z,0.00
2023-05-06T02:08:29.462Z,0.00
2023-05-06T02:09:29.763Z,0.00
2023-05-06T02:10:30.122Z,0.00
2023-05-06T02:11:30.408Z,0.00
2023-05-06T02:12:30.931Z,0.00
2023-05-06T02:13:31.020Z,0.00
2023-05-06T02:14:31.384Z,0.00
2023-05-06T02:15:31.609Z,0.00
2023-05-06T02:16:32.051Z,0.00
2023-05-06T02:17:32.217Z,0.00
2023-05-06T02:18:32.500Z,0.00
2023-05-06T02:19:32.769Z,0.00
2023-05-06T02:20:33.052Z,0.00
2023-05-06T02:21:33.266Z,0.00
2023-05-06T02:22:33.587Z,0.00
2023-05-06T02:23:34.018Z,0.00
2023-05-06T02:24:34.174Z,0.00
2023-05-06T02:25:34.478Z,0.00
2023-05-06T02:26:34.794Z,0.00
2023-05-06T02:27:35.563Z,0.00
2023-05-06T02:28:35.786Z,1.00
2023-05-06T02:29:35.634Z,0.00
2023-05-06T02:30:35.990Z,0.00
2023-05-06T02:31:36.216Z,0.00
2023-05-06T02:32:36.580Z,0.00
2023-05-06T02:33:36.676Z,0.00
2023-05-06T02:34:36.981Z,0.00
2023-05-06T02:35:37.255Z,1.00
2023-05-06T02:36:37.542Z,0.00
2023-05-06T02:37:37.897Z,0.00
2023-05-06T02:38:38.180Z,0.00
2023-05-06T02:39:38.619Z,0.00
2023-05-06T02:40:38.768Z,0.00
2023-05-06T02:41:39.131Z,0.00
2023-05-06T02:42:39.322Z,0.00
2023-05-06T02:43:39.598Z,0.00
2023-05-06T02:44:39.925Z,0.00
2023-05-06T02:45:40.275Z,0.00
2023-05-06T02:46:40.547Z,0.00
2023-05-06T02:47:40.936Z,0.00
2023-05-06T02:48:41.132Z,0.00
2023-05-06T02:49:41.349Z,0.00
2023-05-06T02:50:41.706Z,0.00
2023-05-06T02:51:42.004Z,0.00
2023-05-06T02:52:42.336Z,0.00
2023-05-06T02:53:42.571Z,0.00
2023-05-06T02:54:43.048Z,0.00
2023-05-06T02:55:43.169Z,0.00
2023-05-06T02:56:43.391Z,0.00
2023-05-06T02:57:43.966Z,0.00
2023-05-06T02:58:44.039Z,0.00
2023-05-06T02:59:44.437Z,0.00
2023-05-06T03:00:44.716Z,0.00
2023-05-06T03:01:44.946Z,1.00
2023-05-06T03:02:45.314Z,1.00
2023-05-06T03:03:45.773Z,0.00
2023-05-06T03:04:45.985Z,0.00
2023-05-06T03:05:46.252Z,0.00
2023-05-06T03:06:46.561Z,0.00
2023-05-06T03:07:46.879Z,0.00
2023-05-06T03:08:47.095Z,1.00
2023-05-06T03:09:47.577Z,0.00
2023-05-06T03:10:47.768Z,0.00
2023-05-06T03:11:48.086Z,0.00
2023-05-06T03:12:48.430Z,0.00
2023-05-06T03:13:48.696Z,0.00
2023-05-06T03:14:49.038Z,0.00
2023-05-06T03:15:49.281Z,0.00
2023-05-06T03:16:49.601Z,0.00
2023-05-06T03:17:49.880Z,0.00
2023-05-06T03:18:50.190Z,0.00
2023-05-06T03:19:50.459Z,0.00
2023-05-06T03:20:50.786Z,0.00
2023-05-06T03:21:51.046Z,0.00
2023-05-06T03:22:51.343Z,1.00
2023-05-06T03:23:51.676Z,0.00
2023-05-06T03:24:51.882Z,1.00
2023-05-06T03:25:52.146Z,1.00
2023-05-06T03:26:52.462Z,1.00
2023-05-06T03:27:52.775Z,1.00
2023-05-06T03:28:53.093Z,1.00
2023-05-06T03:29:53.432Z,1.00
2023-05-06T03:30:54.152Z,2.00
2023-05-06T03:31:54.200Z,0.00
2023-05-06T03:32:54.421Z,2.00
2023-05-06T03:33:54.615Z,2.00
2023-05-06T03:34:54.965Z,1.00
2023-05-06T03:35:55.294Z,1.00
2023-05-06T03:36:55.698Z,2.00
2023-05-06T03:37:55.864Z,2.00
2023-05-06T03:38:56.173Z,3.00
2023-05-06T03:39:56.481Z,5.00
2023-05-06T03:40:56.883Z,9.00
2023-05-06T03:41:57.095Z,8.00
2023-05-06T03:42:57.375Z,9.00
2023-05-06T03:43:57.685Z,8.00
2023-05-06T03:44:58.014Z,8.00
2023-05-06T03:45:58.376Z,11.00
2023-05-06T03:46:58.562Z,15.00
2023-05-06T03:47:59.032Z,15.00
2023-05-06T03:48:59.204Z,15.00
2023-05-06T03:49:59.383Z,20.00
2023-05-06T03:50:59.727Z,22.00
2023-05-06T03:51:59.957Z,18.00
2023-05-06T03:53:00.311Z,25.00
2023-05-06T03:54:00.482Z,27.00
2023-05-06T03:55:00.938Z,30.00
2023-05-06T03:56:01.152Z,28.00
2023-05-06T03:57:01.358Z,40.00
2023-05-06T03:58:01.588Z,40.00
2023-05-06T03:59:02.000Z,43.00
2023-05-06T04:00:02.193Z,46.00
2023-05-06T04:01:02.553Z,51.00
2023-05-06T04:02:02.912Z,55.00
2023-05-06T04:03:03.068Z,62.00
2023-05-06T04:04:03.329Z,67.00
2023-05-06T04:05:03.744Z,72.00
2023-05-06T04:06:03.777Z,76.00
2023-05-06T04:07:04.093Z,80.00
2023-05-06T04:08:04.516Z,88.00
2023-05-06T04:09:04.861Z,94.00
2023-05-06T04:10:05.022Z,99.00
2023-05-06T04:11:05.350Z,112.00
2023-05-06T04:12:05.668Z,111.00
2023-05-06T04:13:06.056Z,118.00
2023-05-06T04:14:06.264Z,128.00
2023-05-06T04:15:06.651Z,132.00
2023-05-06T04:16:06.886Z,140.00
2023-05-06T04:17:07.200Z,150.00
2023-05-06T04:18:07.471Z,153.00
2023-05-06T04:19:07.810Z,161.00
2023-05-06T04:20:07.989Z,170.00
2023-05-06T04:21:08.219Z,173.00
2023-05-06T04:22:08.399Z,185.00
2023-05-06T04:23:08.804Z,188.00
2023-05-06T04:24:09.029Z,197.00
2023-05-06T04:25:09.703Z,202.00
2023-05-06T04:26:09.602Z,214.00
2023-05-06T04:27:09.921Z,222.00
2023-05-06T04:28:10.277Z,235.00
2023-05-06T04:29:10.665Z,239.00
2023-05-06T04:30:10.899Z,251.00
2023-05-06T04:31:11.220Z,254.00
2023-05-06T04:32:11.384Z,258.00
2023-05-06T04:33:11.787Z,266.00
2023-05-06T04:34:12.021Z,275.00
2023-05-06T04:35:12.469Z,284.00
2023-05-06T04:36:12.558Z,293.00
2023-05-06T04:37:12.906Z,304.00
2023-05-06T04:38:13.165Z,314.00
2023-05-06T04:39:13.385Z,318.00
2023-05-06T04:40:13.700Z,326.00
2023-05-06T04:41:14.015Z,340.00
2023-05-06T04:42:14.184Z,349.00
2023-05-06T04:43:14.516Z,353.00
2023-05-06T04:44:14.715Z,362.00
2023-05-06T04:45:15.028Z,370.00
2023-05-06T04:46:15.524Z,371.00
2023-05-06T04:47:15.797Z,382.00
2023-05-06T04:48:15.987Z,393.00
2023-05-06T04:49:16.381Z,395.00
2023-05-06T04:50:16.673Z,392.00
2023-05-06T04:51:16.943Z,415.00
2023-05-06T04:52:17.219Z,411.00
2023-05-06T04:53:17.405Z,417.00
2023-05-06T04:54:18.167Z,459.00
2023-05-06T04:55:18.132Z,441.00
2023-05-06T04:56:18.188Z,449.00
2023-05-06T04:57:18.450Z,457.00
2023-05-06T04:58:18.663Z,467.00
2023-05-06T04:59:19.130Z,466.00
2023-05-06T05:00:19.269Z,471.00
2023-05-06T05:01:19.639Z,470.00
2023-05-06T05:02:19.949Z,477.00
2023-05-06T05:03:20.416Z,482.00
2023-05-06T05:04:20.616Z,484.00
2023-05-06T05:05:20.848Z,496.00
2023-05-06T05:06:21.160Z,496.00
2023-05-06T05:07:21.393Z,505.00
2023-05-06T05:08:21.595Z,521.00
2023-05-06T05:09:21.969Z,531.00
2023-05-06T05:10:23.217Z,529.00
2023-05-06T05:11:22.452Z,540.00
2023-05-06T05:12:22.778Z,545.00
2023-05-06T05:13:23.235Z,559.00
2023-05-06T05:14:23.374Z,575.00
2023-05-06T05:15:23.902Z,569.00
2023-05-06T05:16:24.163Z,594.00
2023-05-06T05:17:24.286Z,593.00
2023-05-06T05:18:24.474Z,604.00
2023-05-06T05:19:24.820Z,602.00
2023-05-06T05:20:25.199Z,602.00
2023-05-06T05:21:25.466Z,610.00
2023-05-06T05:22:25.693Z,612.00
2023-05-06T05:23:25.899Z,635.00
2023-05-06T05:24:26.225Z,626.00
2023-05-06T05:25:26.496Z,618.00
2023-05-06T05:26:26.846Z,641.00
2023-05-06T05:27:27.259Z,649.00
2023-05-06T05:28:27.485Z,638.00
2023-05-06T05:29:27.663Z,676.00
2023-05-06T05:30:28.052Z,650.00
2023-05-06T05:31:28.306Z,670.00
2023-05-06T05:32:28.727Z,692.00
2023-05-06T05:33:28.813Z,676.00
2023-05-06T05:34:29.012Z,676.00
2023-05-06T05:35:29.411Z,716.00
2023-05-06T05:36:29.611Z,734.00
2023-05-06T05:37:29.890Z,740.00
2023-05-06T05:38:30.097Z,709.00
2023-05-06T05:39:30.317Z,713.00
2023-05-06T05:40:30.809Z,748.00
2023-05-06T05:41:30.997Z,757.00
2023-05-06T05:42:31.204Z,767.00
2023-05-06T05:43:31.552Z,803.00
2023-05-06T05:44:31.759Z,686.00
2023-05-06T05:45:32.074Z,742.00
2023-05-06T05:46:32.468Z,738.00
2023-05-06T05:47:32.729Z,740.00
2023-05-06T05:48:32.946Z,774.00
2023-05-06T05:49:33.329Z,861.00
2023-05-06T05:50:33.457Z,762.00
2023-05-06T05:51:33.803Z,756.00
2023-05-06T05:52:34.255Z,782.00
2023-05-06T05:53:34.429Z,775.00
2023-05-06T05:54:34.787Z,788.00
2023-05-06T05:55:35.026Z,782.00
2023-05-06T05:56:35.239Z,831.00
2023-05-06T05:57:35.595Z,840.00
2023-05-06T05:58:35.913Z,886.00
2023-05-06T05:59:36.283Z,830.00
2023-05-06T06:00:36.465Z,904.00
2023-05-06T06:01:36.827Z,837.00
2023-05-06T06:02:37.209Z,903.00
2023-05-06T06:03:37.502Z,863.00
2023-05-06T06:04:37.851Z,884.00
2023-05-06T06:05:38.014Z,904.00
2023-05-06T06:06:38.347Z,879.00
2023-05-06T06:07:38.742Z,870.00
2023-05-06T06:08:38.961Z,858.00
2023-05-06T06:09:39.297Z,893.00
2023-05-06T06:10:39.599Z,954.00
2023-05-06T06:11:39.801Z,932.00
2023-05-06T06:12:40.080Z,938.00
2023-05-06T06:13:40.265Z,952.00
2023-05-06T06:14:40.578Z,936.00
2023-05-06T06:15:40.817Z,971.00
2023-05-06T06:16:41.223Z,983.00
2023-05-06T06:17:41.629Z,1122.00
2023-05-06T06:18:41.700Z,933.00
2023-05-06T06:19:42.853Z,1076.00
2023-05-06T06:20:42.245Z,1142.00
2023-05-06T06:21:42.482Z,1162.00
2023-05-06T06:22:42.700Z,1152.00
2023-05-06T06:23:43.057Z,1132.00
2023-05-06T06:24:43.288Z,1222.00
2023-05-06T06:25:43.507Z,1149.00
2023-05-06T06:26:43.943Z,1177.00
2023-05-06T06:27:44.148Z,1148.00
2023-05-06T06:28:44.567Z,1234.00
2023-05-06T06:29:44.860Z,1161.00
2023-05-06T06:30:45.100Z,1191.00
2023-05-06T06:31:45.372Z,1230.00
2023-05-06T06:32:45.693Z,1314.00
2023-05-06T06:33:45.914Z,1380.00
2023-05-06T06:34:46.109Z,1294.00
2023-05-06T06:35:46.562Z,1367.00
2023-05-06T06:36:46.630Z,1031.00
2023-05-06T06:37:47.003Z,1348.00
2023-05-06T06:38:47.259Z,1537.00
2023-05-06T06:39:47.510Z,1438.00
2023-05-06T06:40:47.760Z,1395.00
2023-05-06T06:41:47.973Z,1365.00
2023-05-06T06:42:48.345Z,1465.00
2023-05-06T06:43:48.607Z,1348.00
2023-05-06T06:44:48.818Z,1423.00
2023-05-06T06:45:49.205Z,1336.00
2023-05-06T06:46:49.393Z,1519.00
2023-05-06T06:47:49.706Z,1430.00
2023-05-06T06:48:49.952Z,1618.00
2023-05-06T06:49:50.248Z,1494.00
2023-05-06T06:50:50.521Z,1433.00
2023-05-06T06:51:50.775Z,1491.00
2023-05-06T06:52:51.000Z,1530.00
2023-05-06T06:53:51.217Z,1552.00
2023-05-06T06:54:51.570Z,1588.00
2023-05-06T06:55:51.755Z,1595.00
2023-05-06T06:56:52.157Z,1564.00
2023-05-06T06:57:52.325Z,1268.00
2023-05-06T06:58:53.429Z,1508.00
2023-05-06T06:59:52.791Z,1576.00
2023-05-06T07:00:53.195Z,1503.00
2023-05-06T07:01:53.470Z,1473.00
2023-05-06T07:02:53.701Z,1526.00
2023-05-06T07:03:53.977Z,1485.00
2023-05-06T07:04:54.189Z,1474.00
2023-05-06T07:05:54.476Z,1560.00
2023-05-06T07:06:54.726Z,1530.00
2023-05-06T07:07:54.938Z,1413.00
2023-05-06T07:08:55.273Z,1493.00
2023-05-06T07:09:55.603Z,1522.00
2023-05-06T07:10:56.039Z,1622.00
2023-05-06T07:11:56.208Z,1642.00
2023-05-06T07:12:56.639Z,1702.00
2023-05-06T07:13:56.794Z,1637.00
2023-05-06T07:14:57.109Z,1612.00
2023-05-06T07:15:57.534Z,1753.00
2023-05-06T07:16:57.767Z,1278.00
2023-05-06T07:17:59.031Z,1693.00
2023-05-06T07:18:58.363Z,1696.00
2023-05-06T07:19:58.560Z,1675.00
2023-05-06T07:20:58.930Z,1750.00
2023-05-06T07:21:59.197Z,1874.00
2023-05-06T07:22:59.695Z,1804.00
2023-05-06T07:23:59.735Z,1752.00
2023-05-06T07:24:59.959Z,1761.00
2023-05-06T07:26:01.167Z,1811.00
2023-05-06T07:27:00.546Z,1841.00
2023-05-06T07:28:00.769Z,1939.00
2023-05-06T07:29:01.178Z,1911.00
2023-05-06T07:30:01.429Z,1582.00
2023-05-06T07:31:01.704Z,1944.00
2023-05-06T07:32:01.937Z,1805.00
2023-05-06T07:33:02.185Z,1869.00
2023-05-06T07:34:02.505Z,1822.00
2023-05-06T07:35:02.748Z,1915.00
2023-05-06T07:36:03.087Z,1896.00
2023-05-06T07:37:03.277Z,1997.00
2023-05-06T07:38:03.474Z,1962.00
2023-05-06T07:39:03.825Z,2147.00
2023-05-06T07:40:04.093Z,2170.00
2023-05-06T07:41:04.308Z,2257.00
2023-05-06T07:42:05.499Z,2234.00
2023-05-06T07:43:04.868Z,2214.00
2023-05-06T07:44:05.224Z,2330.00
2023-05-06T07:45:05.522Z,2247.00
2023-05-06T07:46:05.758Z,2426.00
2023-05-06T07:47:07.096Z,2442.00
2023-05-06T07:48:06.352Z,2312.00
2023-05-06T07:49:06.669Z,2219.00
2023-05-06T07:50:06.862Z,2151.00
2023-05-06T07:51:07.064Z,2393.00
2023-05-06T07:52:07.368Z,2302.00
2023-05-06T07:53:07.737Z,2452.00
2023-05-06T07:54:07.946Z,2447.00
2023-05-06T07:55:08.704Z,2470.00
2023-05-06T07:56:08.560Z,2525.00
2023-05-06T07:57:08.914Z,2470.00
2023-05-06T07:58:09.243Z,2475.00
2023-05-06T07:59:09.647Z,2594.00
2023-05-06T08:00:09.917Z,2219.00
2023-05-06T08:01:10.136Z,2568.00
2023-05-06T08:02:10.354Z,2648.00
2023-05-06T08:03:10.689Z,2285.00
2023-05-06T08:04:10.953Z,2518.00
2023-05-06T08:05:11.684Z,2810.00
2023-05-06T08:06:11.331Z,2718.00
2023-05-06T08:07:11.676Z,2833.00
2023-05-06T08:08:12.064Z,3167.00
2023-05-06T08:09:16.998Z,3075.00
2023-05-06T08:10:13.565Z,2858.00
2023-05-06T08:11:12.802Z,3135.00
2023-05-06T08:12:13.118Z,3711.00
2023-05-06T08:13:13.626Z,3112.00
2023-05-06T08:14:13.684Z,3199.00
2023-05-06T08:15:14.021Z,3140.00
2023-05-06T08:16:14.508Z,2991.00
2023-05-06T08:17:14.544Z,3012.00
2023-05-06T08:18:22.272Z,3055.00
2023-05-06T08:19:16.181Z,2934.00
2023-05-06T08:20:15.453Z,2811.00
2023-05-06T08:21:15.640Z,3201.00
2023-05-06T08:22:16.046Z,3209.00
2023-05-06T08:23:16.252Z,3565.00
2023-05-06T08:24:16.500Z,3338.00
2023-05-06T08:25:16.846Z,3345.00
2023-05-06T08:26:17.230Z,3331.00
2023-05-06T08:27:17.443Z,3428.00
2023-05-06T08:28:17.782Z,3549.00
2023-05-06T08:29:18.047Z,3980.00
2023-05-06T08:30:18.342Z,4035.00
2023-05-06T08:31:18.668Z,4699.00
2023-05-06T08:32:19.057Z,4416.00
2023-05-06T08:33:19.289Z,3849.00
2023-05-06T08:34:19.496Z,3559.00
2023-05-06T08:35:19.772Z,4263.00
2023-05-06T08:36:20.091Z,4421.00
2023-05-06T08:37:20.498Z,4445.00
2023-05-06T08:38:20.802Z,4217.00
2023-05-06T08:39:20.988Z,4022.00
2023-05-06T08:40:22.029Z,4191.00
2023-05-06T08:41:21.613Z,4278.00
2023-05-06T08:42:21.963Z,4449.00
2023-05-06T08:43:22.280Z,4243.00
2023-05-06T08:44:22.582Z,4438.00
2023-05-06T08:45:22.774Z,4901.00
2023-05-06T08:46:23.199Z,4766.00
2023-05-06T08:47:23.482Z,4636.00
2023-05-06T08:48:23.656Z,4563.00
2023-05-06T08:49:23.970Z,4542.00
2023-05-06T08:50:24.530Z,4622.00
2023-05-06T08:51:26.094Z,4319.00
2023-05-06T08:52:24.790Z,4340.00
2023-05-06T08:53:25.133Z,4964.00
2023-05-06T08:54:25.446Z,5451.00
2023-05-06T08:55:25.871Z,4890.00
2023-05-06T08:56:26.016Z,5843.00
2023-05-06T08:57:26.357Z,4770.00
2023-05-06T08:58:26.676Z,4813.00
2023-05-06T08:59:27.168Z,5069.00
2023-05-06T09:00:27.672Z,4769.00
2023-05-06T09:01:27.738Z,4759.00
2023-05-06T09:02:28.079Z,3184.00
2023-05-06T09:03:29.836Z,5547.00
2023-05-06T09:04:28.451Z,3505.00
2023-05-06T09:05:28.676Z,2484.00
2023-05-06T09:06:29.014Z,5087.00
2023-05-06T09:07:29.281Z,7779.00
2023-05-06T09:08:29.694Z,3359.00
2023-05-06T09:09:30.042Z,3501.00
2023-05-06T09:10:30.311Z,3268.00
2023-05-06T09:11:30.470Z,3589.00
2023-05-06T09:12:30.801Z,3747.00
2023-05-06T09:13:31.155Z,3378.00
2023-05-06T09:14:31.474Z,2469.00
2023-05-06T09:15:31.898Z,5531.00
2023-05-06T09:16:32.110Z,5579.00
2023-05-06T09:17:32.452Z,5924.00
2023-05-06T09:18:32.837Z,5655.00
2023-05-06T09:19:32.921Z,6308.00
2023-05-06T09:20:33.289Z,1764.00
2023-05-06T09:21:33.614Z,1305.00
2023-05-06T09:22:33.801Z,7857.00
2023-05-06T09:23:34.120Z,5092.00
2023-05-06T09:24:34.425Z,5112.00
2023-05-06T09:25:34.723Z,4859.00
2023-05-06T09:26:35.161Z,5210.00
2023-05-06T09:27:35.408Z,5387.00
2023-05-06T09:28:35.621Z,5662.00
2023-05-06T09:29:35.916Z,5943.00
2023-05-06T09:30:36.285Z,5673.00
2023-05-06T09:31:36.585Z,5314.00
2023-05-06T09:32:39.861Z,5542.00
2023-05-06T09:33:37.318Z,5509.00
2023-05-06T09:34:37.431Z,5943.00
2023-05-06T09:35:37.732Z,5972.00
2023-05-06T09:36:38.059Z,6755.00
2023-05-06T09:37:38.304Z,6620.00
2023-05-06T09:38:38.556Z,6832.00
2023-05-06T09:39:38.873Z,6762.00
2023-05-06T09:40:39.185Z,6785.00
2023-05-06T09:41:39.457Z,6942.00
2023-05-06T09:42:39.757Z,7085.00
2023-05-06T09:43:40.087Z,7325.00
2023-05-06T09:44:40.432Z,6407.00
2023-05-06T09:45:40.742Z,6991.00
2023-05-06T09:46:41.239Z,6991.00
2023-05-06T09:47:41.445Z,7648.00
2023-05-06T09:48:41.718Z,6775.00
2023-05-06T09:49:42.064Z,7353.00
2023-05-06T09:50:42.413Z,7478.00
2023-05-06T09:51:42.608Z,7684.00
2023-05-06T09:52:43.116Z,7621.00
2023-05-06T09:53:43.182Z,8100.00
2023-05-06T09:54:43.489Z,7601.00
2023-05-06T09:55:43.841Z,6712.00
2023-05-06T09:56:44.034Z,7757.00
2023-05-06T09:57:44.330Z,8753.00
2023-05-06T09:58:44.735Z,8448.00
2023-05-06T09:59:44.943Z,8313.00
2023-05-06T10:00:45.281Z,8993.00
2023-05-06T10:01:45.770Z,8402.00
2023-05-06T10:02:46.055Z,9036.00
2023-05-06T10:03:46.622Z,8419.00
2023-05-06T10:04:46.786Z,8916.00
2023-05-06T10:05:46.812Z,7879.00
2023-05-06T10:06:47.173Z,9362.00
2023-05-06T10:07:47.384Z,11049.00
2023-05-06T10:08:47.750Z,9282.00
2023-05-06T10:09:47.935Z,13598.00
2023-05-06T10:10:48.309Z,11569.00
2023-05-06T10:11:48.553Z,10884.00
2023-05-06T10:12:48.928Z,12690.00
2023-05-06T10:13:49.195Z,15559.00
2023-05-06T10:14:49.441Z,15942.00
2023-05-06T10:15:49.734Z,16537.00
2023-05-06T10:16:50.071Z,18641.00
2023-05-06T10:17:50.137Z,20184.00
2023-05-06T10:18:50.356Z,17884.00
2023-05-06T10:19:50.661Z,16821.00
2023-05-06T10:20:50.826Z,18493.00
2023-05-06T10:21:51.167Z,19847.00
2023-05-06T10:22:51.495Z,18939.00
2023-05-06T10:23:51.769Z,20151.00
2023-05-06T10:24:51.966Z,19993.00
2023-05-06T10:25:52.305Z,19054.00
2023-05-06T10:26:52.524Z,18143.00
2023-05-06T10:27:52.755Z,19404.00
2023-05-06T10:28:53.090Z,18427.00
2023-05-06T10:29:53.343Z,18988.00
2023-05-06T10:30:53.957Z,18003.00
2023-05-06T10:31:54.067Z,16616.00
2023-05-06T10:32:54.227Z,15633.00
2023-05-06T10:33:54.547Z,14401.00
2023-05-06T10:34:54.755Z,16117.00
2023-05-06T10:35:55.116Z,17766.00
2023-05-06T10:36:56.285Z,16620.00
2023-05-06T10:37:55.642Z,17912.00
2023-05-06T10:38:56.189Z,16826.00
2023-05-06T10:39:56.247Z,15436.00
2023-05-06T10:40:56.530Z,16220.00
2023-05-06T10:41:56.814Z,16743.00
2023-05-06T10:42:57.062Z,17570.00
2023-05-06T10:43:57.527Z,19027.00
2023-05-06T10:44:57.787Z,20409.00
2023-05-06T10:45:57.970Z,20574.00
2023-05-06T10:46:58.335Z,19374.00
2023-05-06T10:47:58.569Z,23437.00
2023-05-06T10:48:58.868Z,23639.00
2023-05-06T10:49:59.120Z,21667.00
2023-05-06T10:50:59.476Z,23878.00
2023-05-06T10:51:59.644Z,21610.00
2023-05-06T10:53:00.005Z,24002.00
2023-05-06T10:54:00.206Z,23536.00
2023-05-06T10:55:00.597Z,17991.00
2023-05-06T10:56:00.914Z,20596.00
2023-05-06T10:57:01.144Z,21875.00
2023-05-06T10:58:01.646Z,22317.00
2023-05-06T10:59:01.676Z,16850.00
2023-05-06T11:00:01.947Z,15055.00
2023-05-06T11:01:02.221Z,23782.00
2023-05-06T11:02:02.555Z,24844.00
2023-05-06T11:03:02.887Z,23154.00
2023-05-06T11:04:02.988Z,25614.00
2023-05-06T11:05:03.428Z,72939.00
2023-05-06T11:06:03.575Z,73674.00
2023-05-06T11:07:04.146Z,72823.00
2023-05-06T11:08:04.145Z,74065.00
2023-05-06T11:09:04.498Z,73434.00
2023-05-06T11:10:04.742Z,73713.00
2023-05-06T11:11:05.026Z,73874.00
2023-05-06T11:12:05.166Z,73290.00
2023-05-06T11:13:05.553Z,73888.00
2023-05-06T11:14:05.810Z,74790.00
2023-05-06T11:15:06.103Z,73932.00
2023-05-06T11:16:06.305Z,28733.00
2023-05-06T11:17:06.741Z,25547.00
2023-05-06T11:18:07.028Z,24434.00
2023-05-06T11:19:07.157Z,25505.00
2023-05-06T11:20:07.535Z,24589.00
2023-05-06T11:21:07.772Z,23233.00
2023-05-06T11:22:07.996Z,23607.00
2023-05-06T11:23:08.513Z,24964.00
2023-05-06T11:24:08.651Z,21676.00
2023-05-06T11:25:08.807Z,22320.00
2023-05-06T11:26:09.143Z,21803.00
2023-05-06T11:27:09.492Z,20653.00
2023-05-06T11:28:09.833Z,21699.00
2023-05-06T11:29:10.120Z,20951.00
2023-05-06T11:30:10.461Z,18494.00
2023-05-06T11:31:10.662Z,20358.00
2023-05-06T11:32:10.873Z,18522.00
2023-05-06T11:33:11.247Z,20778.00
2023-05-06T11:34:11.480Z,23662.00
2023-05-06T11:35:11.708Z,20760.00
2023-05-06T11:36:11.902Z,21810.00
2023-05-06T11:37:12.274Z,22836.00
2023-05-06T11:38:12.519Z,21115.00
2023-05-06T11:39:12.739Z,22383.00
2023-05-06T11:40:13.115Z,22209.00
2023-05-06T11:41:13.272Z,21630.00
2023-05-06T11:42:13.589Z,20807.00
2023-05-06T11:43:13.995Z,20573.00
2023-05-06T11:44:14.193Z,21383.00
2023-05-06T11:45:14.420Z,20862.00
2023-05-06T11:46:14.752Z,23106.00
2023-05-06T11:47:14.979Z,6366.00
2023-05-06T11:48:15.214Z,17281.00
2023-05-06T11:49:15.652Z,4519.00
2023-05-06T11:50:15.912Z,17660.00
2023-05-06T11:51:16.292Z,9272.00
2023-05-06T11:52:16.432Z,6933.00
2023-05-06T11:53:16.668Z,8347.00
2023-05-06T11:54:16.896Z,5669.00
2023-05-06T11:55:17.190Z,7151.00
2023-05-06T11:56:17.543Z,7068.00
2023-05-06T11:57:17.917Z,7014.00
2023-05-06T11:58:18.132Z,7767.00
2023-05-06T11:59:18.527Z,7145.00
2023-05-06T12:00:18.668Z,7004.00
2023-05-06T12:01:19.041Z,6410.00
2023-05-06T12:02:19.338Z,8481.00
2023-05-06T12:03:19.631Z,6143.00
2023-05-06T12:04:19.846Z,6100.00
2023-05-06T12:05:20.048Z,4822.00
2023-05-06T12:06:21.053Z,5943.00
2023-05-06T12:07:20.645Z,6914.00
2023-05-06T12:08:27.275Z,6975.00
2023-05-06T12:09:22.123Z,6388.00
2023-05-06T12:10:21.535Z,6351.00
2023-05-06T12:11:21.745Z,5468.00
2023-05-06T12:12:22.091Z,5749.00
2023-05-06T12:13:22.441Z,5117.00
2023-05-06T12:14:22.613Z,5822.00
2023-05-06T12:15:23.091Z,5624.00
2023-05-06T12:16:23.267Z,5480.00
2023-05-06T12:17:23.503Z,5507.00
2023-05-06T12:18:23.654Z,5289.00
2023-05-06T12:19:24.067Z,5433.00
2023-05-06T12:20:24.195Z,5420.00
2023-05-06T12:21:24.517Z,5580.00
2023-05-06T12:22:24.962Z,5275.00
2023-05-06T12:23:25.140Z,5319.00
2023-05-06T12:24:25.356Z,5181.00
2023-05-06T12:25:25.786Z,5342.00
2023-05-06T12:26:26.006Z,5271.00
2023-05-06T12:27:26.343Z,5191.00
2023-05-06T12:28:26.680Z,5110.00
2023-05-06T12:29:27.061Z,5064.00
2023-05-06T12:30:27.176Z,5151.00
2023-05-06T12:31:27.558Z,5054.00
2023-05-06T12:32:27.910Z,5088.00